sensor_id;sensor_type;location;lat;lon;timestamp;P1;durP1;ratioP1;P2;durP2;ratioP2
11514;SDS011;5814;41.936;25.556;2023-01-19T00:00:39;38.00;;;9.20;;
11514;SDS011;5814;41.936;25.556;2023-01-19T00:03:06;28.27;;;8.33;;
11514;SDS011;5814;41.936;25.556;2023-01-19T00:05:34;32.40;;;8.50;;
11514;SDS011;5814;41.936;25.556;2023-01-19T00:08:00;35.30;;;8.17;;
11514;SDS011;5814;41.936;25.556;2023-01-19T00:10:28;28.43;;;7.43;;
11514;SDS011;5814;41.936;25.556;2023-01-19T00:12:55;25.40;;;7.63;;
11514;SDS011;5814;41.936;25.556;2023-01-19T00:15:22;23.63;;;7.37;;
11514;SDS011;5814;41.936;25.556;2023-01-19T00:17:49;31.97;;;7.90;;
11514;SDS011;5814;41.936;25.556;2023-01-19T00:20:16;33.97;;;8.60;;
11514;SDS011;5814;41.936;25.556;2023-01-19T00:22:43;27.57;;;8.70;;
11514;SDS011;5814;41.936;25.556;2023-01-19T00:25:11;42.90;;;9.77;;
11514;SDS011;5814;41.936;25.556;2023-01-19T00:27:38;28.80;;;7.93;;
11514;SDS011;5814;41.936;25.556;2023-01-19T00:30:05;32.60;;;8.20;;
11514;SDS011;5814;41.936;25.556;2023-01-19T00:32:34;33.00;;;8.77;;
11514;SDS011;5814;41.936;25.556;2023-01-19T00:35:01;32.13;;;8.50;;
11514;SDS011;5814;41.936;25.556;2023-01-19T00:37:28;30.50;;;8.60;;
11514;SDS011;5814;41.936;25.556;2023-01-19T00:39:55;35.77;;;8.93;;
11514;SDS011;5814;41.936;25.556;2023-01-19T00:42:22;30.23;;;7.57;;
11514;SDS011;5814;41.936;25.556;2023-01-19T00:44:55;38.53;;;8.57;;
11514;SDS011;5814;41.936;25.556;2023-01-19T00:47:22;43.07;;;9.33;;
11514;SDS011;5814;41.936;25.556;2023-01-19T00:49:49;30.57;;;8.67;;
11514;SDS011;5814;41.936;25.556;2023-01-19T00:52:16;28.40;;;8.50;;
11514;SDS011;5814;41.936;25.556;2023-01-19T00:54:43;36.23;;;9.17;;
11514;SDS011;5814;41.936;25.556;2023-01-19T00:57:11;33.60;;;8.97;;
11514;SDS011;5814;41.936;25.556;2023-01-19T00:59:38;26.37;;;8.07;;
11514;SDS011;5814;41.936;25.556;2023-01-19T01:02:05;41.63;;;8.83;;
11514;SDS011;5814;41.936;25.556;2023-01-19T01:04:32;30.93;;;8.60;;
11514;SDS011;5814;41.936;25.556;2023-01-19T01:06:59;39.27;;;8.30;;
11514;SDS011;5814;41.936;25.556;2023-01-19T01:09:26;29.13;;;9.30;;
11514;SDS011;5814;41.936;25.556;2023-01-19T01:11:54;40.13;;;10.77;;
11514;SDS011;5814;41.936;25.556;2023-01-19T01:14:21;33.97;;;9.67;;
11514;SDS011;5814;41.936;25.556;2023-01-19T01:16:48;45.17;;;8.90;;
11514;SDS011;5814;41.936;25.556;2023-01-19T01:19:15;36.53;;;8.77;;
11514;SDS011;5814;41.936;25.556;2023-01-19T01:21:42;30.43;;;8.80;;
11514;SDS011;5814;41.936;25.556;2023-01-19T01:24:10;36.10;;;9.43;;
11514;SDS011;5814;41.936;25.556;2023-01-19T01:26:37;36.20;;;8.17;;
11514;SDS011;5814;41.936;25.556;2023-01-19T01:29:04;38.50;;;8.30;;
11514;SDS011;5814;41.936;25.556;2023-01-19T01:31:31;32.37;;;8.63;;
11514;SDS011;5814;41.936;25.556;2023-01-19T01:33:58;37.03;;;8.13;;
11514;SDS011;5814;41.936;25.556;2023-01-19T01:36:25;40.57;;;9.60;;
11514;SDS011;5814;41.936;25.556;2023-01-19T01:38:53;31.30;;;8.67;;
11514;SDS011;5814;41.936;25.556;2023-01-19T01:41:20;32.73;;;9.03;;
11514;SDS011;5814;41.936;25.556;2023-01-19T01:43:49;30.80;;;8.30;;
11514;SDS011;5814;41.936;25.556;2023-01-19T01:46:15;34.30;;;8.57;;
11514;SDS011;5814;41.936;25.556;2023-01-19T01:48:43;31.10;;;7.60;;
11514;SDS011;5814;41.936;25.556;2023-01-19T01:51:13;41.73;;;8.57;;
11514;SDS011;5814;41.936;25.556;2023-01-19T01:53:48;33.23;;;7.97;;
11514;SDS011;5814;41.936;25.556;2023-01-19T01:56:16;39.73;;;9.23;;
11514;SDS011;5814;41.936;25.556;2023-01-19T01:58:42;34.60;;;8.67;;
11514;SDS011;5814;41.936;25.556;2023-01-19T02:01:09;30.43;;;8.07;;
11514;SDS011;5814;41.936;25.556;2023-01-19T02:03:41;39.93;;;9.83;;
11514;SDS011;5814;41.936;25.556;2023-01-19T02:06:09;33.33;;;7.87;;
11514;SDS011;5814;41.936;25.556;2023-01-19T02:08:38;36.50;;;8.40;;
11514;SDS011;5814;41.936;25.556;2023-01-19T02:11:09;34.20;;;8.00;;
11514;SDS011;5814;41.936;25.556;2023-01-19T02:13:42;28.77;;;8.30;;
11514;SDS011;5814;41.936;25.556;2023-01-19T02:16:09;36.50;;;9.20;;
11514;SDS011;5814;41.936;25.556;2023-01-19T02:18:37;38.20;;;8.73;;
11514;SDS011;5814;41.936;25.556;2023-01-19T02:23:46;29.43;;;8.20;;
11514;SDS011;5814;41.936;25.556;2023-01-19T02:26:14;36.17;;;9.07;;
11514;SDS011;5814;41.936;25.556;2023-01-19T02:28:42;38.57;;;8.70;;
11514;SDS011;5814;41.936;25.556;2023-01-19T02:31:07;29.87;;;8.40;;
11514;SDS011;5814;41.936;25.556;2023-01-19T02:33:35;31.90;;;8.10;;
11514;SDS011;5814;41.936;25.556;2023-01-19T02:36:02;37.60;;;8.77;;
11514;SDS011;5814;41.936;25.556;2023-01-19T02:38:29;30.80;;;8.10;;
11514;SDS011;5814;41.936;25.556;2023-01-19T02:40:57;29.27;;;7.90;;
11514;SDS011;5814;41.936;25.556;2023-01-19T02:43:24;30.13;;;7.57;;
11514;SDS011;5814;41.936;25.556;2023-01-19T02:45:51;42.57;;;8.83;;
11514;SDS011;5814;41.936;25.556;2023-01-19T02:48:19;33.40;;;8.93;;
11514;SDS011;5814;41.936;25.556;2023-01-19T02:50:50;26.20;;;8.80;;
11514;SDS011;5814;41.936;25.556;2023-01-19T02:53:21;24.40;;;6.30;;
11514;SDS011;5814;41.936;25.556;2023-01-19T02:58:47;27.13;;;7.53;;
11514;SDS011;5814;41.936;25.556;2023-01-19T03:01:39;32.37;;;8.53;;
11514;SDS011;5814;41.936;25.556;2023-01-19T03:04:22;38.30;;;8.77;;
11514;SDS011;5814;41.936;25.556;2023-01-19T03:06:50;30.47;;;8.40;;
11514;SDS011;5814;41.936;25.556;2023-01-19T03:09:26;24.43;;;6.13;;
11514;SDS011;5814;41.936;25.556;2023-01-19T03:12:00;32.10;;;8.97;;
11514;SDS011;5814;41.936;25.556;2023-01-19T03:14:26;30.87;;;7.77;;
11514;SDS011;5814;41.936;25.556;2023-01-19T03:16:55;32.93;;;7.67;;
11514;SDS011;5814;41.936;25.556;2023-01-19T03:19:24;24.23;;;7.70;;
11514;SDS011;5814;41.936;25.556;2023-01-19T03:21:54;38.23;;;9.43;;
11514;SDS011;5814;41.936;25.556;2023-01-19T03:24:20;32.13;;;8.50;;
11514;SDS011;5814;41.936;25.556;2023-01-19T03:26:48;37.47;;;9.53;;
11514;SDS011;5814;41.936;25.556;2023-01-19T03:29:15;28.87;;;7.60;;
11514;SDS011;5814;41.936;25.556;2023-01-19T03:31:42;30.33;;;8.23;;
11514;SDS011;5814;41.936;25.556;2023-01-19T03:34:10;22.67;;;6.27;;
11514;SDS011;5814;41.936;25.556;2023-01-19T03:36:41;31.10;;;8.23;;
11514;SDS011;5814;41.936;25.556;2023-01-19T03:39:09;30.63;;;7.33;;
11514;SDS011;5814;41.936;25.556;2023-01-19T03:41:36;42.03;;;8.90;;
11514;SDS011;5814;41.936;25.556;2023-01-19T03:44:03;36.20;;;8.63;;
11514;SDS011;5814;41.936;25.556;2023-01-19T03:46:31;32.77;;;7.60;;
11514;SDS011;5814;41.936;25.556;2023-01-19T03:48:58;26.37;;;7.83;;
11514;SDS011;5814;41.936;25.556;2023-01-19T03:51:25;29.43;;;8.83;;
11514;SDS011;5814;41.936;25.556;2023-01-19T03:53:52;46.03;;;9.97;;
11514;SDS011;5814;41.936;25.556;2023-01-19T03:56:20;21.50;;;7.20;;
11514;SDS011;5814;41.936;25.556;2023-01-19T03:58:47;32.47;;;8.43;;
11514;SDS011;5814;41.936;25.556;2023-01-19T04:01:15;43.37;;;9.40;;
11514;SDS011;5814;41.936;25.556;2023-01-19T04:03:42;36.83;;;8.03;;
11514;SDS011;5814;41.936;25.556;2023-01-19T04:06:09;43.10;;;8.97;;
11514;SDS011;5814;41.936;25.556;2023-01-19T04:08:36;42.47;;;10.57;;
11514;SDS011;5814;41.936;25.556;2023-01-19T04:11:03;30.67;;;8.13;;
11514;SDS011;5814;41.936;25.556;2023-01-19T04:13:30;37.27;;;8.33;;
11514;SDS011;5814;41.936;25.556;2023-01-19T04:15:58;37.40;;;8.50;;
11514;SDS011;5814;41.936;25.556;2023-01-19T04:18:25;25.00;;;7.37;;
11514;SDS011;5814;41.936;25.556;2023-01-19T04:20:52;39.57;;;8.50;;
11514;SDS011;5814;41.936;25.556;2023-01-19T04:23:19;30.87;;;7.93;;
11514;SDS011;5814;41.936;25.556;2023-01-19T04:25:46;34.87;;;8.37;;
11514;SDS011;5814;41.936;25.556;2023-01-19T04:28:13;37.90;;;8.80;;
11514;SDS011;5814;41.936;25.556;2023-01-19T04:30:41;32.80;;;7.93;;
11514;SDS011;5814;41.936;25.556;2023-01-19T04:33:08;33.70;;;8.20;;
11514;SDS011;5814;41.936;25.556;2023-01-19T04:35:35;33.33;;;8.37;;
11514;SDS011;5814;41.936;25.556;2023-01-19T04:38:02;37.23;;;8.57;;
11514;SDS011;5814;41.936;25.556;2023-01-19T04:40:29;45.30;;;8.93;;
11514;SDS011;5814;41.936;25.556;2023-01-19T04:42:56;44.97;;;10.33;;
11514;SDS011;5814;41.936;25.556;2023-01-19T04:45:23;28.43;;;8.30;;
11514;SDS011;5814;41.936;25.556;2023-01-19T04:47:51;38.63;;;7.93;;
11514;SDS011;5814;41.936;25.556;2023-01-19T04:50:18;33.53;;;8.37;;
11514;SDS011;5814;41.936;25.556;2023-01-19T04:52:45;37.50;;;9.40;;
11514;SDS011;5814;41.936;25.556;2023-01-19T04:55:12;40.30;;;8.77;;
11514;SDS011;5814;41.936;25.556;2023-01-19T04:57:39;34.47;;;9.23;;
11514;SDS011;5814;41.936;25.556;2023-01-19T05:00:07;24.10;;;5.90;;
11514;SDS011;5814;41.936;25.556;2023-01-19T05:02:35;28.43;;;7.63;;
11514;SDS011;5814;41.936;25.556;2023-01-19T05:05:02;39.83;;;9.60;;
11514;SDS011;5814;41.936;25.556;2023-01-19T05:07:30;39.17;;;9.23;;
11514;SDS011;5814;41.936;25.556;2023-01-19T05:09:57;36.93;;;9.80;;
11514;SDS011;5814;41.936;25.556;2023-01-19T05:12:24;17.03;;;6.10;;
11514;SDS011;5814;41.936;25.556;2023-01-19T05:14:51;37.53;;;10.00;;
11514;SDS011;5814;41.936;25.556;2023-01-19T05:17:18;38.17;;;10.40;;
11514;SDS011;5814;41.936;25.556;2023-01-19T05:19:46;33.63;;;8.37;;
11514;SDS011;5814;41.936;25.556;2023-01-19T05:22:13;37.80;;;9.97;;
11514;SDS011;5814;41.936;25.556;2023-01-19T05:24:40;43.43;;;9.27;;
11514;SDS011;5814;41.936;25.556;2023-01-19T05:27:07;33.77;;;9.10;;
11514;SDS011;5814;41.936;25.556;2023-01-19T05:29:34;33.13;;;8.40;;
11514;SDS011;5814;41.936;25.556;2023-01-19T05:32:01;35.93;;;9.23;;
11514;SDS011;5814;41.936;25.556;2023-01-19T05:34:29;27.90;;;9.60;;
11514;SDS011;5814;41.936;25.556;2023-01-19T05:36:56;15.20;;;5.70;;
11514;SDS011;5814;41.936;25.556;2023-01-19T05:39:23;33.43;;;7.43;;
11514;SDS011;5814;41.936;25.556;2023-01-19T05:41:50;31.97;;;8.83;;
11514;SDS011;5814;41.936;25.556;2023-01-19T05:44:17;30.07;;;8.23;;
11514;SDS011;5814;41.936;25.556;2023-01-19T05:46:45;24.60;;;7.80;;
11514;SDS011;5814;41.936;25.556;2023-01-19T05:49:12;30.77;;;6.77;;
11514;SDS011;5814;41.936;25.556;2023-01-19T05:51:39;20.10;;;6.93;;
11514;SDS011;5814;41.936;25.556;2023-01-19T05:54:06;37.47;;;9.40;;
11514;SDS011;5814;41.936;25.556;2023-01-19T05:56:33;27.47;;;7.33;;
11514;SDS011;5814;41.936;25.556;2023-01-19T05:59:01;21.40;;;7.17;;
11514;SDS011;5814;41.936;25.556;2023-01-19T06:01:28;35.20;;;7.40;;
11514;SDS011;5814;41.936;25.556;2023-01-19T06:03:55;24.73;;;7.40;;
11514;SDS011;5814;41.936;25.556;2023-01-19T06:06:22;29.27;;;8.63;;
11514;SDS011;5814;41.936;25.556;2023-01-19T06:08:49;30.30;;;8.73;;
11514;SDS011;5814;41.936;25.556;2023-01-19T06:11:16;16.27;;;6.60;;
11514;SDS011;5814;41.936;25.556;2023-01-19T06:13:44;27.83;;;7.37;;
11514;SDS011;5814;41.936;25.556;2023-01-19T06:16:11;30.60;;;7.67;;
11514;SDS011;5814;41.936;25.556;2023-01-19T06:18:38;41.47;;;8.53;;
11514;SDS011;5814;41.936;25.556;2023-01-19T06:21:05;40.93;;;8.43;;
11514;SDS011;5814;41.936;25.556;2023-01-19T06:23:33;25.10;;;6.63;;
11514;SDS011;5814;41.936;25.556;2023-01-19T06:25:59;34.40;;;7.83;;
11514;SDS011;5814;41.936;25.556;2023-01-19T06:28:27;33.03;;;8.43;;
11514;SDS011;5814;41.936;25.556;2023-01-19T06:30:54;37.13;;;9.23;;
11514;SDS011;5814;41.936;25.556;2023-01-19T06:33:22;20.90;;;6.30;;
11514;SDS011;5814;41.936;25.556;2023-01-19T06:35:49;36.37;;;8.33;;
11514;SDS011;5814;41.936;25.556;2023-01-19T06:38:16;24.73;;;7.50;;
11514;SDS011;5814;41.936;25.556;2023-01-19T06:40:43;30.83;;;7.83;;
11514;SDS011;5814;41.936;25.556;2023-01-19T06:43:10;37.30;;;10.10;;
11514;SDS011;5814;41.936;25.556;2023-01-19T06:45:37;37.77;;;10.13;;
11514;SDS011;5814;41.936;25.556;2023-01-19T06:48:04;30.40;;;8.03;;
11514;SDS011;5814;41.936;25.556;2023-01-19T06:50:32;14.40;;;6.27;;
11514;SDS011;5814;41.936;25.556;2023-01-19T06:52:59;29.77;;;7.33;;
11514;SDS011;5814;41.936;25.556;2023-01-19T06:55:26;38.10;;;8.93;;
11514;SDS011;5814;41.936;25.556;2023-01-19T06:57:54;38.67;;;9.20;;
11514;SDS011;5814;41.936;25.556;2023-01-19T07:00:21;39.07;;;8.90;;
11514;SDS011;5814;41.936;25.556;2023-01-19T07:02:48;25.30;;;7.37;;
11514;SDS011;5814;41.936;25.556;2023-01-19T07:05:15;29.60;;;9.00;;
11514;SDS011;5814;41.936;25.556;2023-01-19T07:07:43;41.97;;;8.60;;
11514;SDS011;5814;41.936;25.556;2023-01-19T07:10:10;39.43;;;8.93;;
11514;SDS011;5814;41.936;25.556;2023-01-19T07:12:37;28.73;;;8.17;;
11514;SDS011;5814;41.936;25.556;2023-01-19T07:15:05;34.47;;;8.50;;
11514;SDS011;5814;41.936;25.556;2023-01-19T07:17:33;29.13;;;8.93;;
11514;SDS011;5814;41.936;25.556;2023-01-19T07:20:00;27.87;;;7.90;;
11514;SDS011;5814;41.936;25.556;2023-01-19T07:22:27;41.33;;;8.63;;
11514;SDS011;5814;41.936;25.556;2023-01-19T07:24:54;18.17;;;6.17;;
11514;SDS011;5814;41.936;25.556;2023-01-19T07:27:21;37.10;;;9.63;;
11514;SDS011;5814;41.936;25.556;2023-01-19T07:29:49;40.83;;;9.23;;
11514;SDS011;5814;41.936;25.556;2023-01-19T07:32:16;29.65;;;8.60;;
11514;SDS011;5814;41.936;25.556;2023-01-19T07:34:43;34.63;;;9.10;;
11514;SDS011;5814;41.936;25.556;2023-01-19T07:37:10;27.60;;;8.30;;
11514;SDS011;5814;41.936;25.556;2023-01-19T07:39:37;25.07;;;7.57;;
11514;SDS011;5814;41.936;25.556;2023-01-19T07:42:05;23.70;;;8.27;;
11514;SDS011;5814;41.936;25.556;2023-01-19T07:44:32;31.37;;;8.50;;
11514;SDS011;5814;41.936;25.556;2023-01-19T07:46:59;21.80;;;7.03;;
11514;SDS011;5814;41.936;25.556;2023-01-19T07:49:26;33.60;;;7.60;;
11514;SDS011;5814;41.936;25.556;2023-01-19T07:51:53;18.62;;;6.68;;
11514;SDS011;5814;41.936;25.556;2023-01-19T07:54:20;33.87;;;8.40;;
11514;SDS011;5814;41.936;25.556;2023-01-19T07:56:48;28.12;;;7.68;;
11514;SDS011;5814;41.936;25.556;2023-01-19T07:59:15;24.83;;;8.38;;
11514;SDS011;5814;41.936;25.556;2023-01-19T08:01:42;24.80;;;7.20;;
11514;SDS011;5814;41.936;25.556;2023-01-19T08:04:09;16.12;;;7.12;;
11514;SDS011;5814;41.936;25.556;2023-01-19T08:06:37;37.35;;;7.85;;
11514;SDS011;5814;41.936;25.556;2023-01-19T08:09:03;26.02;;;7.68;;
11514;SDS011;5814;41.936;25.556;2023-01-19T08:11:31;29.65;;;8.02;;
11514;SDS011;5814;41.936;25.556;2023-01-19T08:13:58;24.35;;;7.65;;
11514;SDS011;5814;41.936;25.556;2023-01-19T08:16:25;17.95;;;6.65;;
11514;SDS011;5814;41.936;25.556;2023-01-19T08:18:52;19.37;;;6.95;;
11514;SDS011;5814;41.936;25.556;2023-01-19T08:21:19;22.80;;;7.07;;
11514;SDS011;5814;41.936;25.556;2023-01-19T08:23:52;21.87;;;8.43;;
11514;SDS011;5814;41.936;25.556;2023-01-19T08:26:19;20.95;;;7.32;;
11514;SDS011;5814;41.936;25.556;2023-01-19T08:28:46;20.17;;;7.03;;
11514;SDS011;5814;41.936;25.556;2023-01-19T08:31:14;24.08;;;7.15;;
11514;SDS011;5814;41.936;25.556;2023-01-19T08:33:41;12.95;;;5.90;;
11514;SDS011;5814;41.936;25.556;2023-01-19T08:36:08;14.75;;;5.85;;
11514;SDS011;5814;41.936;25.556;2023-01-19T08:38:35;18.98;;;6.50;;
11514;SDS011;5814;41.936;25.556;2023-01-19T08:41:02;11.20;;;5.97;;
11514;SDS011;5814;41.936;25.556;2023-01-19T08:43:30;23.70;;;7.70;;
11514;SDS011;5814;41.936;25.556;2023-01-19T08:45:57;16.37;;;5.68;;
11514;SDS011;5814;41.936;25.556;2023-01-19T08:48:24;24.37;;;7.25;;
11514;SDS011;5814;41.936;25.556;2023-01-19T08:50:51;25.83;;;7.97;;
11514;SDS011;5814;41.936;25.556;2023-01-19T08:53:19;15.35;;;6.55;;
11514;SDS011;5814;41.936;25.556;2023-01-19T08:55:46;17.15;;;6.03;;
11514;SDS011;5814;41.936;25.556;2023-01-19T08:58:13;20.23;;;6.43;;
11514;SDS011;5814;41.936;25.556;2023-01-19T09:00:40;16.20;;;6.10;;
11514;SDS011;5814;41.936;25.556;2023-01-19T09:03:08;15.95;;;6.65;;
11514;SDS011;5814;41.936;25.556;2023-01-19T09:05:35;24.90;;;7.10;;
11514;SDS011;5814;41.936;25.556;2023-01-19T09:08:02;18.70;;;6.25;;
11514;SDS011;5814;41.936;25.556;2023-01-19T09:10:29;14.50;;;5.85;;
11514;SDS011;5814;41.936;25.556;2023-01-19T09:12:57;21.92;;;5.85;;
11514;SDS011;5814;41.936;25.556;2023-01-19T09:15:24;7.90;;;5.05;;
11514;SDS011;5814;41.936;25.556;2023-01-19T09:17:51;21.20;;;6.28;;
11514;SDS011;5814;41.936;25.556;2023-01-19T09:20:18;25.77;;;6.65;;
11514;SDS011;5814;41.936;25.556;2023-01-19T09:22:46;22.15;;;6.10;;
11514;SDS011;5814;41.936;25.556;2023-01-19T09:25:13;14.30;;;5.93;;
11514;SDS011;5814;41.936;25.556;2023-01-19T09:27:40;15.55;;;5.90;;
11514;SDS011;5814;41.936;25.556;2023-01-19T09:30:08;20.25;;;5.93;;
11514;SDS011;5814;41.936;25.556;2023-01-19T09:32:36;15.93;;;6.40;;
11514;SDS011;5814;41.936;25.556;2023-01-19T09:35:03;21.25;;;5.95;;
11514;SDS011;5814;41.936;25.556;2023-01-19T09:37:30;20.45;;;5.85;;
11514;SDS011;5814;41.936;25.556;2023-01-19T09:39:58;20.75;;;6.32;;
11514;SDS011;5814;41.936;25.556;2023-01-19T09:42:28;16.35;;;5.45;;
11514;SDS011;5814;41.936;25.556;2023-01-19T09:44:59;21.83;;;6.37;;
11514;SDS011;5814;41.936;25.556;2023-01-19T09:47:27;21.45;;;6.75;;
11514;SDS011;5814;41.936;25.556;2023-01-19T09:49:57;15.35;;;5.62;;
11514;SDS011;5814;41.936;25.556;2023-01-19T09:52:34;12.93;;;5.93;;
11514;SDS011;5814;41.936;25.556;2023-01-19T09:55:00;17.77;;;6.05;;
11514;SDS011;5814;41.936;25.556;2023-01-19T09:57:27;16.50;;;5.47;;
11514;SDS011;5814;41.936;25.556;2023-01-19T09:59:54;18.10;;;6.45;;
11514;SDS011;5814;41.936;25.556;2023-01-19T10:02:26;18.05;;;6.00;;
11514;SDS011;5814;41.936;25.556;2023-01-19T10:07:45;16.25;;;5.35;;
11514;SDS011;5814;41.936;25.556;2023-01-19T10:10:20;19.90;;;6.80;;
11514;SDS011;5814;41.936;25.556;2023-01-19T10:12:52;14.98;;;4.97;;
11514;SDS011;5814;41.936;25.556;2023-01-19T10:15:28;11.07;;;5.37;;
11514;SDS011;5814;41.936;25.556;2023-01-19T10:20:43;23.23;;;5.80;;
11514;SDS011;5814;41.936;25.556;2023-01-19T10:23:22;11.35;;;4.72;;
11514;SDS011;5814;41.936;25.556;2023-01-19T10:25:47;8.98;;;5.37;;
11514;SDS011;5814;41.936;25.556;2023-01-19T10:28:14;15.88;;;6.30;;
11514;SDS011;5814;41.936;25.556;2023-01-19T10:30:41;12.98;;;5.20;;
11514;SDS011;5814;41.936;25.556;2023-01-19T10:33:10;11.50;;;5.55;;
11514;SDS011;5814;41.936;25.556;2023-01-19T10:35:38;19.83;;;6.53;;
11514;SDS011;5814;41.936;25.556;2023-01-19T10:38:05;20.37;;;6.40;;
11514;SDS011;5814;41.936;25.556;2023-01-19T10:40:35;15.52;;;6.47;;
11514;SDS011;5814;41.936;25.556;2023-01-19T10:43:00;17.62;;;5.40;;
11514;SDS011;5814;41.936;25.556;2023-01-19T10:45:29;14.95;;;6.35;;
11514;SDS011;5814;41.936;25.556;2023-01-19T10:47:56;13.60;;;6.10;;
11514;SDS011;5814;41.936;25.556;2023-01-19T10:50:25;7.78;;;4.75;;
11514;SDS011;5814;41.936;25.556;2023-01-19T10:52:52;19.37;;;6.18;;
11514;SDS011;5814;41.936;25.556;2023-01-19T10:55:23;16.35;;;5.32;;
11514;SDS011;5814;41.936;25.556;2023-01-19T10:57:50;12.75;;;6.40;;
11514;SDS011;5814;41.936;25.556;2023-01-19T11:02:54;16.87;;;6.03;;
11514;SDS011;5814;41.936;25.556;2023-01-19T11:05:22;16.73;;;6.47;;
11514;SDS011;5814;41.936;25.556;2023-01-19T11:07:50;12.20;;;5.30;;
11514;SDS011;5814;41.936;25.556;2023-01-19T11:10:20;15.15;;;5.37;;
11514;SDS011;5814;41.936;25.556;2023-01-19T11:15:35;10.23;;;5.65;;
11514;SDS011;5814;41.936;25.556;2023-01-19T11:20:51;14.77;;;5.62;;
11514;SDS011;5814;41.936;25.556;2023-01-19T11:23:24;12.07;;;5.22;;
11514;SDS011;5814;41.936;25.556;2023-01-19T11:25:49;15.05;;;6.30;;
11514;SDS011;5814;41.936;25.556;2023-01-19T11:28:17;13.90;;;5.80;;
11514;SDS011;5814;41.936;25.556;2023-01-19T11:30:52;12.35;;;5.12;;
11514;SDS011;5814;41.936;25.556;2023-01-19T11:33:23;6.70;;;4.75;;
11514;SDS011;5814;41.936;25.556;2023-01-19T11:36:00;16.48;;;5.78;;
11514;SDS011;5814;41.936;25.556;2023-01-19T11:38:20;13.62;;;5.40;;
11514;SDS011;5814;41.936;25.556;2023-01-19T11:40:50;14.20;;;5.62;;
11514;SDS011;5814;41.936;25.556;2023-01-19T11:43:16;13.27;;;4.72;;
11514;SDS011;5814;41.936;25.556;2023-01-19T11:45:43;11.20;;;5.55;;
11514;SDS011;5814;41.936;25.556;2023-01-19T11:48:13;13.73;;;5.72;;
11514;SDS011;5814;41.936;25.556;2023-01-19T11:50:39;6.60;;;4.47;;
11514;SDS011;5814;41.936;25.556;2023-01-19T11:55:47;14.95;;;5.57;;
11514;SDS011;5814;41.936;25.556;2023-01-19T11:58:14;8.30;;;5.05;;
11514;SDS011;5814;41.936;25.556;2023-01-19T12:00:42;6.75;;;4.20;;
11514;SDS011;5814;41.936;25.556;2023-01-19T12:03:18;7.75;;;3.92;;
11514;SDS011;5814;41.936;25.556;2023-01-19T12:05:45;6.00;;;3.92;;
11514;SDS011;5814;41.936;25.556;2023-01-19T12:08:14;11.07;;;5.53;;
11514;SDS011;5814;41.936;25.556;2023-01-19T12:10:40;11.12;;;5.15;;
11514;SDS011;5814;41.936;25.556;2023-01-19T12:13:13;11.80;;;5.07;;
11514;SDS011;5814;41.936;25.556;2023-01-19T12:15:41;10.52;;;4.60;;
11514;SDS011;5814;41.936;25.556;2023-01-19T12:18:11;8.45;;;4.87;;
11514;SDS011;5814;41.936;25.556;2023-01-19T12:20:36;12.25;;;5.32;;
11514;SDS011;5814;41.936;25.556;2023-01-19T12:24:11;7.28;;;5.07;;
11514;SDS011;5814;41.936;25.556;2023-01-19T12:25:58;9.68;;;4.47;;
11514;SDS011;5814;41.936;25.556;2023-01-19T12:28:29;13.73;;;5.60;;
11514;SDS011;5814;41.936;25.556;2023-01-19T12:30:56;9.98;;;5.05;;
11514;SDS011;5814;41.936;25.556;2023-01-19T12:33:33;13.00;;;5.00;;
11514;SDS011;5814;41.936;25.556;2023-01-19T12:36:03;11.88;;;4.85;;
11514;SDS011;5814;41.936;25.556;2023-01-19T12:38:46;6.43;;;4.37;;
11514;SDS011;5814;41.936;25.556;2023-01-19T12:41:17;10.73;;;4.78;;
11514;SDS011;5814;41.936;25.556;2023-01-19T12:46:57;11.50;;;5.45;;
11514;SDS011;5814;41.936;25.556;2023-01-19T12:49:33;10.43;;;5.57;;
11514;SDS011;5814;41.936;25.556;2023-01-19T12:52:20;10.73;;;5.53;;
11514;SDS011;5814;41.936;25.556;2023-01-19T12:54:51;11.95;;;5.32;;
11514;SDS011;5814;41.936;25.556;2023-01-19T12:57:18;9.77;;;4.30;;
11514;SDS011;5814;41.936;25.556;2023-01-19T13:00:02;6.55;;;4.20;;
11514;SDS011;5814;41.936;25.556;2023-01-19T13:02:29;4.43;;;3.78;;
11514;SDS011;5814;41.936;25.556;2023-01-19T13:13:31;5.65;;;4.68;;
11514;SDS011;5814;41.936;25.556;2023-01-19T13:15:42;12.60;;;4.75;;
11514;SDS011;5814;41.936;25.556;2023-01-19T13:18:09;10.93;;;4.72;;
11514;SDS011;5814;41.936;25.556;2023-01-19T13:20:43;5.60;;;4.35;;
11514;SDS011;5814;41.936;25.556;2023-01-19T13:23:19;4.65;;;3.87;;
11514;SDS011;5814;41.936;25.556;2023-01-19T13:25:46;7.05;;;5.30;;
11514;SDS011;5814;41.936;25.556;2023-01-19T13:28:13;6.57;;;4.45;;
11514;SDS011;5814;41.936;25.556;2023-01-19T13:30:44;8.80;;;4.70;;
11514;SDS011;5814;41.936;25.556;2023-01-19T13:33:11;13.00;;;4.82;;
11514;SDS011;5814;41.936;25.556;2023-01-19T13:35:35;8.00;;;5.10;;
11514;SDS011;5814;41.936;25.556;2023-01-19T13:38:02;11.40;;;5.35;;
11514;SDS011;5814;41.936;25.556;2023-01-19T13:40:32;7.47;;;4.93;;
11514;SDS011;5814;41.936;25.556;2023-01-19T13:42:57;9.23;;;4.50;;
11514;SDS011;5814;41.936;25.556;2023-01-19T13:45:29;8.85;;;5.07;;
11514;SDS011;5814;41.936;25.556;2023-01-19T13:47:59;10.68;;;4.78;;
11514;SDS011;5814;41.936;25.556;2023-01-19T13:50:28;11.02;;;5.30;;
11514;SDS011;5814;41.936;25.556;2023-01-19T13:52:55;8.52;;;5.28;;
11514;SDS011;5814;41.936;25.556;2023-01-19T13:55:22;15.77;;;7.70;;
11514;SDS011;5814;41.936;25.556;2023-01-19T13:57:50;9.13;;;5.55;;
11514;SDS011;5814;41.936;25.556;2023-01-19T14:00:21;6.25;;;4.57;;
11514;SDS011;5814;41.936;25.556;2023-01-19T14:05:37;11.90;;;4.43;;
11514;SDS011;5814;41.936;25.556;2023-01-19T14:08:11;8.27;;;4.90;;
11514;SDS011;5814;41.936;25.556;2023-01-19T14:10:39;14.23;;;5.62;;
11514;SDS011;5814;41.936;25.556;2023-01-19T14:13:13;13.35;;;5.57;;
11514;SDS011;5814;41.936;25.556;2023-01-19T14:15:38;4.78;;;4.00;;
11514;SDS011;5814;41.936;25.556;2023-01-19T14:18:06;9.15;;;5.05;;
11514;SDS011;5814;41.936;25.556;2023-01-19T14:20:34;12.18;;;5.28;;
11514;SDS011;5814;41.936;25.556;2023-01-19T14:23:01;11.23;;;5.57;;
11514;SDS011;5814;41.936;25.556;2023-01-19T14:25:31;6.78;;;4.78;;
11514;SDS011;5814;41.936;25.556;2023-01-19T14:30:37;7.37;;;4.10;;
11514;SDS011;5814;41.936;25.556;2023-01-19T14:33:04;9.18;;;5.72;;
11514;SDS011;5814;41.936;25.556;2023-01-19T14:35:31;7.57;;;5.43;;
11514;SDS011;5814;41.936;25.556;2023-01-19T14:37:58;13.77;;;5.32;;
11514;SDS011;5814;41.936;25.556;2023-01-19T14:40:25;8.52;;;5.85;;
11514;SDS011;5814;41.936;25.556;2023-01-19T14:42:54;6.50;;;5.23;;
11514;SDS011;5814;41.936;25.556;2023-01-19T14:45:21;7.50;;;4.87;;
11514;SDS011;5814;41.936;25.556;2023-01-19T14:47:53;6.80;;;5.20;;
11514;SDS011;5814;41.936;25.556;2023-01-19T14:50:26;5.80;;;5.10;;
11514;SDS011;5814;41.936;25.556;2023-01-19T14:52:54;12.60;;;5.47;;
11514;SDS011;5814;41.936;25.556;2023-01-19T14:55:31;8.03;;;5.30;;
11514;SDS011;5814;41.936;25.556;2023-01-19T14:57:48;8.20;;;5.47;;
11514;SDS011;5814;41.936;25.556;2023-01-19T15:00:16;6.73;;;5.03;;
11514;SDS011;5814;41.936;25.556;2023-01-19T15:02:44;10.30;;;5.83;;
11514;SDS011;5814;41.936;25.556;2023-01-19T15:05:10;8.90;;;5.13;;
11514;SDS011;5814;41.936;25.556;2023-01-19T15:07:38;10.20;;;5.50;;
11514;SDS011;5814;41.936;25.556;2023-01-19T15:10:08;8.20;;;5.30;;
11514;SDS011;5814;41.936;25.556;2023-01-19T15:12:32;8.90;;;5.20;;
11514;SDS011;5814;41.936;25.556;2023-01-19T15:14:59;14.60;;;6.37;;
11514;SDS011;5814;41.936;25.556;2023-01-19T15:17:26;18.10;;;5.90;;
11514;SDS011;5814;41.936;25.556;2023-01-19T15:19:54;11.27;;;5.73;;